Argonne, Minnesota
Current Conditions -  °F | °C
As of 5:46 PM on Friday 28 Nov 2014 (Local Time) from KLVN Reporting Station
Scattered Clouds Scattered Clouds  
Wind Chill: 11°   Ceiling: Unl
Heat Index: 21°   Visibility: 10mi
Dew Point: 18°   Wind: 9mph
Humidity: 86%   Direction: 110°ESE
Pressure: 29.8"   Gusts: NA
Location:  44.6349°N, 93.283°W
Report Text: KLVN 282346Z AUTO 11008KT 10SM SCT120 M06/M08 A2980 RMK AO2
Loading
Personal Weather Stations






























Interactive Weather Map New forecast layout! Learn more

10-Day Weather Forecast

Advertisements
Track Severe Weather on mobile